sensor_id;sensor_type;location;lat;lon;timestamp;P1;durP1;ratioP1;P2;durP2;ratioP2
19163;SDS011;9714;51.208;4.242;2023-02-15T00:06:59;90.63;;;42.27;;
19163;SDS011;9714;51.208;4.242;2023-02-15T00:13:02;75.03;;;40.27;;
19163;SDS011;9714;51.208;4.242;2023-02-15T00:15:50;80.60;;;40.37;;
19163;SDS011;9714;51.208;4.242;2023-02-15T00:18:19;86.47;;;42.40;;
19163;SDS011;9714;51.208;4.242;2023-02-15T00:20:47;84.90;;;41.67;;
19163;SDS011;9714;51.208;4.242;2023-02-15T00:23:20;80.57;;;38.80;;
19163;SDS011;9714;51.208;4.242;2023-02-15T00:25:47;76.00;;;38.10;;
19163;SDS011;9714;51.208;4.242;2023-02-15T00:28:15;86.47;;;39.20;;
19163;SDS011;9714;51.208;4.242;2023-02-15T00:30:42;86.70;;;40.57;;
19163;SDS011;9714;51.208;4.242;2023-02-15T00:33:09;75.17;;;40.37;;
19163;SDS011;9714;51.208;4.242;2023-02-15T00:38:14;83.17;;;43.17;;
19163;SDS011;9714;51.208;4.242;2023-02-15T00:40:43;81.10;;;41.53;;
19163;SDS011;9714;51.208;4.242;2023-02-15T00:43:18;85.00;;;39.63;;
19163;SDS011;9714;51.208;4.242;2023-02-15T00:45:45;76.33;;;37.97;;
19163;SDS011;9714;51.208;4.242;2023-02-15T00:48:13;74.40;;;39.50;;
19163;SDS011;9714;51.208;4.242;2023-02-15T00:50:48;79.03;;;37.43;;
19163;SDS011;9714;51.208;4.242;2023-02-15T00:53:18;74.33;;;38.97;;
19163;SDS011;9714;51.208;4.242;2023-02-15T00:55:46;79.57;;;39.40;;
19163;SDS011;9714;51.208;4.242;2023-02-15T00:58:13;69.50;;;37.03;;
19163;SDS011;9714;51.208;4.242;2023-02-15T01:00:43;74.47;;;36.60;;
19163;SDS011;9714;51.208;4.242;2023-02-15T01:03:13;72.10;;;37.00;;
19163;SDS011;9714;51.208;4.242;2023-02-15T01:05:42;68.37;;;37.03;;
19163;SDS011;9714;51.208;4.242;2023-02-15T01:08:11;76.50;;;38.50;;
19163;SDS011;9714;51.208;4.242;2023-02-15T01:10:38;69.33;;;35.60;;
19163;SDS011;9714;51.208;4.242;2023-02-15T01:13:06;72.10;;;36.80;;
19163;SDS011;9714;51.208;4.242;2023-02-15T01:15:34;68.67;;;35.60;;
19163;SDS011;9714;51.208;4.242;2023-02-15T01:18:03;73.23;;;35.67;;
19163;SDS011;9714;51.208;4.242;2023-02-15T01:20:34;66.63;;;35.63;;
19163;SDS011;9714;51.208;4.242;2023-02-15T01:23:16;67.03;;;34.67;;
19163;SDS011;9714;51.208;4.242;2023-02-15T01:25:44;68.27;;;35.83;;
19163;SDS011;9714;51.208;4.242;2023-02-15T01:28:11;70.17;;;35.43;;
19163;SDS011;9714;51.208;4.242;2023-02-15T01:30:41;71.00;;;35.73;;
19163;SDS011;9714;51.208;4.242;2023-02-15T01:33:08;75.73;;;37.27;;
19163;SDS011;9714;51.208;4.242;2023-02-15T01:35:42;79.73;;;38.53;;
19163;SDS011;9714;51.208;4.242;2023-02-15T01:38:10;82.97;;;38.10;;
19163;SDS011;9714;51.208;4.242;2023-02-15T01:40:38;82.13;;;39.13;;
19163;SDS011;9714;51.208;4.242;2023-02-15T01:43:08;83.80;;;39.33;;
19163;SDS011;9714;51.208;4.242;2023-02-15T01:45:37;78.17;;;39.67;;
19163;SDS011;9714;51.208;4.242;2023-02-15T01:48:06;76.83;;;38.53;;
19163;SDS011;9714;51.208;4.242;2023-02-15T01:50:45;75.23;;;36.93;;
19163;SDS011;9714;51.208;4.242;2023-02-15T01:53:18;83.27;;;38.03;;
19163;SDS011;9714;51.208;4.242;2023-02-15T01:55:50;87.00;;;39.73;;
19163;SDS011;9714;51.208;4.242;2023-02-15T01:58:21;84.50;;;38.77;;
19163;SDS011;9714;51.208;4.242;2023-02-15T02:00:52;74.20;;;37.80;;
19163;SDS011;9714;51.208;4.242;2023-02-15T02:03:20;82.10;;;39.03;;
19163;SDS011;9714;51.208;4.242;2023-02-15T02:05:56;84.13;;;37.47;;
19163;SDS011;9714;51.208;4.242;2023-02-15T02:08:24;82.17;;;39.93;;
19163;SDS011;9714;51.208;4.242;2023-02-15T02:10:53;88.57;;;38.57;;
19163;SDS011;9714;51.208;4.242;2023-02-15T02:13:20;84.17;;;40.93;;
19163;SDS011;9714;51.208;4.242;2023-02-15T02:15:50;78.83;;;39.60;;
19163;SDS011;9714;51.208;4.242;2023-02-15T02:18:28;84.87;;;38.07;;
19163;SDS011;9714;51.208;4.242;2023-02-15T02:24:22;73.13;;;35.73;;
19163;SDS011;9714;51.208;4.242;2023-02-15T02:35:53;67.93;;;34.90;;
19163;SDS011;9714;51.208;4.242;2023-02-15T02:38:28;73.60;;;36.03;;
19163;SDS011;9714;51.208;4.242;2023-02-15T02:41:07;77.57;;;35.20;;
19163;SDS011;9714;51.208;4.242;2023-02-15T02:43:45;73.43;;;36.77;;
19163;SDS011;9714;51.208;4.242;2023-02-15T02:46:20;71.60;;;35.23;;
19163;SDS011;9714;51.208;4.242;2023-02-15T02:48:53;72.20;;;34.80;;
19163;SDS011;9714;51.208;4.242;2023-02-15T02:51:21;74.07;;;35.53;;
19163;SDS011;9714;51.208;4.242;2023-02-15T02:53:50;72.23;;;34.67;;
19163;SDS011;9714;51.208;4.242;2023-02-15T02:56:21;74.40;;;34.50;;
19163;SDS011;9714;51.208;4.242;2023-02-15T02:58:54;70.70;;;34.60;;
19163;SDS011;9714;51.208;4.242;2023-02-15T03:01:27;64.23;;;34.63;;
19163;SDS011;9714;51.208;4.242;2023-02-15T03:04:00;67.77;;;35.37;;
19163;SDS011;9714;51.208;4.242;2023-02-15T03:06:34;62.73;;;33.40;;
19163;SDS011;9714;51.208;4.242;2023-02-15T03:09:07;77.33;;;35.30;;
19163;SDS011;9714;51.208;4.242;2023-02-15T03:11:41;73.40;;;36.63;;
19163;SDS011;9714;51.208;4.242;2023-02-15T03:14:10;79.97;;;36.53;;
19163;SDS011;9714;51.208;4.242;2023-02-15T03:16:39;67.93;;;34.43;;
19163;SDS011;9714;51.208;4.242;2023-02-15T03:19:10;69.67;;;36.53;;
19163;SDS011;9714;51.208;4.242;2023-02-15T03:21:42;73.73;;;37.60;;
19163;SDS011;9714;51.208;4.242;2023-02-15T03:24:16;80.87;;;40.20;;
19163;SDS011;9714;51.208;4.242;2023-02-15T03:26:46;74.40;;;37.10;;
19163;SDS011;9714;51.208;4.242;2023-02-15T03:29:16;78.20;;;39.47;;
19163;SDS011;9714;51.208;4.242;2023-02-15T03:31:47;79.10;;;39.33;;
19163;SDS011;9714;51.208;4.242;2023-02-15T03:34:20;79.03;;;40.27;;
19163;SDS011;9714;51.208;4.242;2023-02-15T03:36:50;77.53;;;40.03;;
19163;SDS011;9714;51.208;4.242;2023-02-15T03:39:22;81.40;;;40.50;;
19163;SDS011;9714;51.208;4.242;2023-02-15T03:41:58;88.83;;;42.10;;
19163;SDS011;9714;51.208;4.242;2023-02-15T03:44:36;84.87;;;41.70;;
19163;SDS011;9714;51.208;4.242;2023-02-15T03:47:11;75.07;;;37.70;;
19163;SDS011;9714;51.208;4.242;2023-02-15T03:49:45;73.43;;;38.27;;
19163;SDS011;9714;51.208;4.242;2023-02-15T03:52:16;80.93;;;40.83;;
19163;SDS011;9714;51.208;4.242;2023-02-15T03:54:44;82.17;;;40.37;;
19163;SDS011;9714;51.208;4.242;2023-02-15T03:57:14;79.33;;;40.83;;
19163;SDS011;9714;51.208;4.242;2023-02-15T04:00:11;85.17;;;40.67;;
19163;SDS011;9714;51.208;4.242;2023-02-15T04:05:51;77.43;;;38.63;;
19163;SDS011;9714;51.208;4.242;2023-02-15T04:08:19;83.53;;;40.73;;
19163;SDS011;9714;51.208;4.242;2023-02-15T04:11:06;79.97;;;38.90;;
19163;SDS011;9714;51.208;4.242;2023-02-15T04:13:32;88.43;;;40.17;;
19163;SDS011;9714;51.208;4.242;2023-02-15T04:16:00;87.07;;;41.87;;
19163;SDS011;9714;51.208;4.242;2023-02-15T04:18:30;87.97;;;41.43;;
19163;SDS011;9714;51.208;4.242;2023-02-15T04:21:17;84.77;;;41.03;;
19163;SDS011;9714;51.208;4.242;2023-02-15T04:24:03;78.67;;;40.73;;
19163;SDS011;9714;51.208;4.242;2023-02-15T04:26:48;77.70;;;40.30;;
19163;SDS011;9714;51.208;4.242;2023-02-15T04:29:18;86.97;;;43.27;;
19163;SDS011;9714;51.208;4.242;2023-02-15T04:31:47;85.80;;;42.27;;
19163;SDS011;9714;51.208;4.242;2023-02-15T04:34:14;85.30;;;42.87;;
19163;SDS011;9714;51.208;4.242;2023-02-15T04:36:43;85.43;;;43.60;;
19163;SDS011;9714;51.208;4.242;2023-02-15T04:39:11;87.60;;;42.37;;
19163;SDS011;9714;51.208;4.242;2023-02-15T04:41:39;90.50;;;43.00;;
19163;SDS011;9714;51.208;4.242;2023-02-15T04:44:08;93.07;;;43.20;;
19163;SDS011;9714;51.208;4.242;2023-02-15T04:46:42;88.67;;;44.17;;
19163;SDS011;9714;51.208;4.242;2023-02-15T04:49:10;88.83;;;43.73;;
19163;SDS011;9714;51.208;4.242;2023-02-15T04:51:39;89.93;;;42.73;;
19163;SDS011;9714;51.208;4.242;2023-02-15T04:54:09;83.37;;;42.67;;
19163;SDS011;9714;51.208;4.242;2023-02-15T04:56:36;77.67;;;40.77;;
19163;SDS011;9714;51.208;4.242;2023-02-15T04:59:04;78.77;;;40.13;;
19163;SDS011;9714;51.208;4.242;2023-02-15T05:01:32;80.00;;;40.27;;
19163;SDS011;9714;51.208;4.242;2023-02-15T05:03:59;78.17;;;40.77;;
19163;SDS011;9714;51.208;4.242;2023-02-15T05:06:26;74.40;;;39.60;;
19163;SDS011;9714;51.208;4.242;2023-02-15T05:08:54;75.50;;;40.90;;
19163;SDS011;9714;51.208;4.242;2023-02-15T05:11:25;90.43;;;44.47;;
19163;SDS011;9714;51.208;4.242;2023-02-15T05:13:53;86.13;;;43.80;;
19163;SDS011;9714;51.208;4.242;2023-02-15T05:16:21;81.90;;;41.10;;
19163;SDS011;9714;51.208;4.242;2023-02-15T05:18:48;84.60;;;42.83;;
19163;SDS011;9714;51.208;4.242;2023-02-15T05:21:17;85.13;;;42.83;;
19163;SDS011;9714;51.208;4.242;2023-02-15T05:23:44;86.63;;;42.30;;
19163;SDS011;9714;51.208;4.242;2023-02-15T05:26:15;79.27;;;41.13;;
19163;SDS011;9714;51.208;4.242;2023-02-15T05:29:03;80.37;;;39.47;;
19163;SDS011;9714;51.208;4.242;2023-02-15T05:31:32;81.67;;;40.97;;
19163;SDS011;9714;51.208;4.242;2023-02-15T05:33:59;77.67;;;39.63;;
19163;SDS011;9714;51.208;4.242;2023-02-15T05:36:26;86.07;;;40.03;;
19163;SDS011;9714;51.208;4.242;2023-02-15T05:38:54;79.13;;;38.87;;
19163;SDS011;9714;51.208;4.242;2023-02-15T05:41:21;80.07;;;41.07;;
19163;SDS011;9714;51.208;4.242;2023-02-15T05:43:49;74.47;;;39.70;;
19163;SDS011;9714;51.208;4.242;2023-02-15T05:46:17;76.03;;;38.13;;
19163;SDS011;9714;51.208;4.242;2023-02-15T05:48:45;80.50;;;40.80;;
19163;SDS011;9714;51.208;4.242;2023-02-15T05:51:14;75.43;;;38.30;;
19163;SDS011;9714;51.208;4.242;2023-02-15T05:53:42;79.97;;;38.07;;
19163;SDS011;9714;51.208;4.242;2023-02-15T05:56:10;73.00;;;38.77;;
19163;SDS011;9714;51.208;4.242;2023-02-15T05:58:38;71.53;;;37.63;;
19163;SDS011;9714;51.208;4.242;2023-02-15T06:01:07;77.43;;;38.90;;
19163;SDS011;9714;51.208;4.242;2023-02-15T06:03:36;78.83;;;39.50;;
19163;SDS011;9714;51.208;4.242;2023-02-15T06:06:05;77.30;;;39.63;;
19163;SDS011;9714;51.208;4.242;2023-02-15T06:08:33;73.43;;;37.83;;
19163;SDS011;9714;51.208;4.242;2023-02-15T06:11:01;79.00;;;40.10;;
19163;SDS011;9714;51.208;4.242;2023-02-15T06:13:29;72.27;;;38.57;;
19163;SDS011;9714;51.208;4.242;2023-02-15T06:15:56;75.10;;;38.20;;
19163;SDS011;9714;51.208;4.242;2023-02-15T06:18:26;72.17;;;39.67;;
19163;SDS011;9714;51.208;4.242;2023-02-15T06:20:55;79.20;;;39.60;;
19163;SDS011;9714;51.208;4.242;2023-02-15T06:23:23;81.20;;;40.83;;
19163;SDS011;9714;51.208;4.242;2023-02-15T06:25:50;78.50;;;38.97;;
19163;SDS011;9714;51.208;4.242;2023-02-15T06:28:17;76.43;;;39.03;;
19163;SDS011;9714;51.208;4.242;2023-02-15T06:30:44;77.43;;;41.03;;
19163;SDS011;9714;51.208;4.242;2023-02-15T06:33:12;80.93;;;39.97;;
19163;SDS011;9714;51.208;4.242;2023-02-15T06:35:39;79.63;;;39.90;;
19163;SDS011;9714;51.208;4.242;2023-02-15T06:38:08;94.17;;;40.73;;
19163;SDS011;9714;51.208;4.242;2023-02-15T06:40:36;86.20;;;41.07;;
19163;SDS011;9714;51.208;4.242;2023-02-15T06:43:03;79.23;;;39.83;;
19163;SDS011;9714;51.208;4.242;2023-02-15T06:45:30;86.53;;;41.70;;
19163;SDS011;9714;51.208;4.242;2023-02-15T06:47:57;88.87;;;42.53;;
19163;SDS011;9714;51.208;4.242;2023-02-15T06:50:25;80.67;;;40.37;;
19163;SDS011;9714;51.208;4.242;2023-02-15T06:52:57;79.40;;;39.83;;
19163;SDS011;9714;51.208;4.242;2023-02-15T06:55:28;76.33;;;40.03;;
19163;SDS011;9714;51.208;4.242;2023-02-15T06:57:55;85.60;;;40.97;;
19163;SDS011;9714;51.208;4.242;2023-02-15T07:00:26;74.13;;;39.80;;
19163;SDS011;9714;51.208;4.242;2023-02-15T07:02:59;82.77;;;40.10;;
19163;SDS011;9714;51.208;4.242;2023-02-15T07:05:27;85.23;;;41.23;;
19163;SDS011;9714;51.208;4.242;2023-02-15T07:07:55;86.97;;;40.07;;
19163;SDS011;9714;51.208;4.242;2023-02-15T07:10:24;82.83;;;40.63;;
19163;SDS011;9714;51.208;4.242;2023-02-15T07:12:52;85.03;;;40.30;;
19163;SDS011;9714;51.208;4.242;2023-02-15T07:15:19;86.10;;;40.70;;
19163;SDS011;9714;51.208;4.242;2023-02-15T07:17:47;75.67;;;39.10;;
19163;SDS011;9714;51.208;4.242;2023-02-15T07:20:15;80.50;;;39.83;;
19163;SDS011;9714;51.208;4.242;2023-02-15T07:22:46;78.77;;;39.73;;
19163;SDS011;9714;51.208;4.242;2023-02-15T07:28:02;76.37;;;38.50;;
19163;SDS011;9714;51.208;4.242;2023-02-15T07:30:30;77.83;;;39.67;;
19163;SDS011;9714;51.208;4.242;2023-02-15T07:32:57;82.27;;;41.13;;
19163;SDS011;9714;51.208;4.242;2023-02-15T07:35:46;80.23;;;38.57;;
19163;SDS011;9714;51.208;4.242;2023-02-15T07:38:14;72.87;;;37.30;;
19163;SDS011;9714;51.208;4.242;2023-02-15T07:40:41;76.93;;;39.67;;
19163;SDS011;9714;51.208;4.242;2023-02-15T07:43:10;75.33;;;38.00;;
19163;SDS011;9714;51.208;4.242;2023-02-15T07:45:37;79.17;;;39.10;;
19163;SDS011;9714;51.208;4.242;2023-02-15T07:48:05;82.00;;;37.53;;
19163;SDS011;9714;51.208;4.242;2023-02-15T07:50:33;77.40;;;37.57;;
19163;SDS011;9714;51.208;4.242;2023-02-15T07:53:01;74.57;;;36.20;;
19163;SDS011;9714;51.208;4.242;2023-02-15T07:55:29;74.03;;;37.23;;
19163;SDS011;9714;51.208;4.242;2023-02-15T07:57:56;74.27;;;37.63;;
19163;SDS011;9714;51.208;4.242;2023-02-15T08:00:24;72.57;;;36.23;;
19163;SDS011;9714;51.208;4.242;2023-02-15T08:02:52;71.83;;;36.27;;
19163;SDS011;9714;51.208;4.242;2023-02-15T08:05:34;68.80;;;36.60;;
19163;SDS011;9714;51.208;4.242;2023-02-15T08:08:02;77.73;;;36.93;;
19163;SDS011;9714;51.208;4.242;2023-02-15T08:10:30;75.90;;;35.93;;
19163;SDS011;9714;51.208;4.242;2023-02-15T08:13:15;67.13;;;34.13;;
19163;SDS011;9714;51.208;4.242;2023-02-15T08:15:49;60.70;;;34.43;;
19163;SDS011;9714;51.208;4.242;2023-02-15T08:18:22;61.50;;;33.43;;
19163;SDS011;9714;51.208;4.242;2023-02-15T08:20:51;60.33;;;32.57;;
19163;SDS011;9714;51.208;4.242;2023-02-15T08:23:18;60.17;;;32.37;;
19163;SDS011;9714;51.208;4.242;2023-02-15T08:25:48;64.73;;;32.53;;
19163;SDS011;9714;51.208;4.242;2023-02-15T08:28:17;60.23;;;32.10;;
19163;SDS011;9714;51.208;4.242;2023-02-15T08:30:44;58.13;;;31.87;;
19163;SDS011;9714;51.208;4.242;2023-02-15T08:33:15;62.33;;;34.00;;
19163;SDS011;9714;51.208;4.242;2023-02-15T08:35:43;59.20;;;33.73;;
19163;SDS011;9714;51.208;4.242;2023-02-15T08:38:10;62.43;;;33.47;;
19163;SDS011;9714;51.208;4.242;2023-02-15T08:40:37;66.40;;;34.53;;
19163;SDS011;9714;51.208;4.242;2023-02-15T08:43:04;56.43;;;32.07;;
19163;SDS011;9714;51.208;4.242;2023-02-15T08:45:32;54.73;;;30.60;;
19163;SDS011;9714;51.208;4.242;2023-02-15T08:48:00;58.53;;;32.67;;
19163;SDS011;9714;51.208;4.242;2023-02-15T08:50:28;60.13;;;31.37;;
19163;SDS011;9714;51.208;4.242;2023-02-15T08:52:56;62.20;;;30.47;;
19163;SDS011;9714;51.208;4.242;2023-02-15T08:55:23;54.57;;;30.80;;
19163;SDS011;9714;51.208;4.242;2023-02-15T08:57:51;58.77;;;30.40;;
19163;SDS011;9714;51.208;4.242;2023-02-15T09:00:21;59.17;;;29.80;;
19163;SDS011;9714;51.208;4.242;2023-02-15T09:02:48;52.73;;;29.47;;
19163;SDS011;9714;51.208;4.242;2023-02-15T09:05:15;59.67;;;31.33;;
19163;SDS011;9714;51.208;4.242;2023-02-15T09:07:45;59.77;;;33.50;;
19163;SDS011;9714;51.208;4.242;2023-02-15T09:10:12;54.10;;;30.27;;
19163;SDS011;9714;51.208;4.242;2023-02-15T09:12:39;58.60;;;30.63;;
19163;SDS011;9714;51.208;4.242;2023-02-15T09:15:07;63.90;;;32.80;;
19163;SDS011;9714;51.208;4.242;2023-02-15T09:17:34;53.30;;;29.87;;
19163;SDS011;9714;51.208;4.242;2023-02-15T09:20:02;58.90;;;30.43;;
19163;SDS011;9714;51.208;4.242;2023-02-15T09:22:29;52.53;;;29.40;;
19163;SDS011;9714;51.208;4.242;2023-02-15T09:24:57;53.60;;;28.87;;
19163;SDS011;9714;51.208;4.242;2023-02-15T09:27:24;56.80;;;29.80;;
19163;SDS011;9714;51.208;4.242;2023-02-15T09:29:52;48.43;;;27.83;;
19163;SDS011;9714;51.208;4.242;2023-02-15T09:32:19;54.27;;;29.03;;
19163;SDS011;9714;51.208;4.242;2023-02-15T09:34:47;47.90;;;28.07;;
19163;SDS011;9714;51.208;4.242;2023-02-15T09:37:14;48.93;;;27.57;;
19163;SDS011;9714;51.208;4.242;2023-02-15T09:39:42;48.20;;;26.17;;
19163;SDS011;9714;51.208;4.242;2023-02-15T09:42:24;49.30;;;26.70;;
19163;SDS011;9714;51.208;4.242;2023-02-15T09:45:14;49.80;;;27.40;;
19163;SDS011;9714;51.208;4.242;2023-02-15T09:50:41;53.57;;;28.80;;
19163;SDS011;9714;51.208;4.242;2023-02-15T09:56:13;44.40;;;25.90;;
19163;SDS011;9714;51.208;4.242;2023-02-15T09:58:49;49.10;;;27.90;;
19163;SDS011;9714;51.208;4.242;2023-02-15T10:01:26;47.70;;;27.57;;
19163;SDS011;9714;51.208;4.242;2023-02-15T10:04:08;47.60;;;25.83;;
19163;SDS011;9714;51.208;4.242;2023-02-15T10:06:51;47.53;;;26.23;;
19163;SDS011;9714;51.208;4.242;2023-02-15T10:09:35;45.97;;;25.73;;
19163;SDS011;9714;51.208;4.242;2023-02-15T10:12:14;47.27;;;26.47;;
19163;SDS011;9714;51.208;4.242;2023-02-15T10:18:09;46.40;;;25.40;;
19163;SDS011;9714;51.208;4.242;2023-02-15T10:20:54;44.70;;;25.10;;
19163;SDS011;9714;51.208;4.242;2023-02-15T10:23:34;43.87;;;25.43;;
19163;SDS011;9714;51.208;4.242;2023-02-15T10:32:40;46.37;;;26.07;;
19163;SDS011;9714;51.208;4.242;2023-02-15T10:35:22;47.17;;;26.97;;
19163;SDS011;9714;51.208;4.242;2023-02-15T10:40:46;42.97;;;26.97;;
19163;SDS011;9714;51.208;4.242;2023-02-15T10:43:33;50.63;;;26.30;;
19163;SDS011;9714;51.208;4.242;2023-02-15T10:46:15;49.50;;;27.57;;
19163;SDS011;9714;51.208;4.242;2023-02-15T10:49:07;49.73;;;28.67;;
19163;SDS011;9714;51.208;4.242;2023-02-15T10:52:06;47.40;;;27.97;;
19163;SDS011;9714;51.208;4.242;2023-02-15T10:54:45;47.20;;;26.50;;
19163;SDS011;9714;51.208;4.242;2023-02-15T10:57:23;52.33;;;27.23;;
19163;SDS011;9714;51.208;4.242;2023-02-15T11:00:02;46.37;;;28.43;;
19163;SDS011;9714;51.208;4.242;2023-02-15T11:02:39;51.22;;;25.73;;
19163;SDS011;9714;51.208;4.242;2023-02-15T11:05:22;46.25;;;27.00;;
19163;SDS011;9714;51.208;4.242;2023-02-15T11:07:59;45.60;;;26.05;;
19163;SDS011;9714;51.208;4.242;2023-02-15T11:10:32;42.38;;;25.90;;
19163;SDS011;9714;51.208;4.242;2023-02-15T11:13:05;48.65;;;25.45;;
19163;SDS011;9714;51.208;4.242;2023-02-15T11:15:39;44.45;;;26.45;;
19163;SDS011;9714;51.208;4.242;2023-02-15T11:18:09;46.67;;;25.58;;
19163;SDS011;9714;51.208;4.242;2023-02-15T11:20:44;43.88;;;25.13;;
19163;SDS011;9714;51.208;4.242;2023-02-15T11:23:19;47.75;;;28.50;;
19163;SDS011;9714;51.208;4.242;2023-02-15T11:25:52;47.45;;;26.65;;
19163;SDS011;9714;51.208;4.242;2023-02-15T11:28:23;40.05;;;24.90;;
19163;SDS011;9714;51.208;4.242;2023-02-15T11:30:56;40.65;;;25.70;;
19163;SDS011;9714;51.208;4.242;2023-02-15T11:33:27;44.25;;;25.83;;
19163;SDS011;9714;51.208;4.242;2023-02-15T11:36:00;41.53;;;25.95;;
19163;SDS011;9714;51.208;4.242;2023-02-15T11:38:31;46.83;;;25.27;;
19163;SDS011;9714;51.208;4.242;2023-02-15T11:41:01;50.95;;;27.50;;
19163;SDS011;9714;51.208;4.242;2023-02-15T11:43:33;49.35;;;26.85;;
19163;SDS011;9714;51.208;4.242;2023-02-15T11:46:04;47.33;;;27.02;;
19163;SDS011;9714;51.208;4.242;2023-02-15T11:48:32;50.72;;;26.35;;
19163;SDS011;9714;51.208;4.242;2023-02-15T11:51:01;49.17;;;26.90;;
19163;SDS011;9714;51.208;4.242;2023-02-15T11:53:31;50.77;;;25.93;;
19163;SDS011;9714;51.208;4.242;2023-02-15T11:56:01;45.03;;;26.33;;
19163;SDS011;9714;51.208;4.242;2023-02-15T11:58:33;48.40;;;26.03;;
19163;SDS011;9714;51.208;4.242;2023-02-15T12:01:08;48.03;;;26.13;;
19163;SDS011;9714;51.208;4.242;2023-02-15T12:03:43;48.57;;;26.50;;
19163;SDS011;9714;51.208;4.242;2023-02-15T12:06:18;43.80;;;25.53;;
19163;SDS011;9714;51.208;4.242;2023-02-15T12:08:51;44.40;;;26.30;;
19163;SDS011;9714;51.208;4.242;2023-02-15T12:11:23;46.63;;;25.17;;
19163;SDS011;9714;51.208;4.242;2023-02-15T12:13:56;47.93;;;25.70;;
19163;SDS011;9714;51.208;4.242;2023-02-15T12:16:24;46.97;;;24.77;;
19163;SDS011;9714;51.208;4.242;2023-02-15T12:18:54;43.22;;;26.23;;
19163;SDS011;9714;51.208;4.242;2023-02-15T12:21:26;43.60;;;25.88;;
19163;SDS011;9714;51.208;4.242;2023-02-15T12:23:57;49.67;;;25.50;;
19163;SDS011;9714;51.208;4.242;2023-02-15T12:26:28;49.90;;;26.95;;
19163;SDS011;9714;51.208;4.242;2023-02-15T12:29:00;43.63;;;26.33;;
19163;SDS011;9714;51.208;4.242;2023-02-15T12:31:35;43.97;;;25.40;;
19163;SDS011;9714;51.208;4.242;2023-02-15T12:34:08;43.30;;;25.20;;
19163;SDS011;9714;51.208;4.242;2023-02-15T12:36:42;39.42;;;25.35;;
19163;SDS011;9714;51.208;4.242;2023-02-15T12:39:18;48.17;;;26.95;;
19163;SDS011;9714;51.208;4.242;2023-02-15T12:41:57;44.67;;;26.73;;
19163;SDS011;9714;51.208;4.242;2023-02-15T12:44:30;43.50;;;25.37;;
19163;SDS011;9714;51.208;4.242;2023-02-15T12:46:59;44.45;;;26.38;;
19163;SDS011;9714;51.208;4.242;2023-02-15T12:49:29;45.72;;;25.55;;
19163;SDS011;9714;51.208;4.242;2023-02-15T12:52:00;47.80;;;26.23;;
19163;SDS011;9714;51.208;4.242;2023-02-15T12:54:30;55.00;;;25.92;;
19163;SDS011;9714;51.208;4.242;2023-02-15T12:59:57;46.97;;;28.02;;
19163;SDS011;9714;51.208;4.242;2023-02-15T13:02:27;50.05;;;27.00;;
19163;SDS011;9714;51.208;4.242;2023-02-15T13:04:57;51.73;;;28.20;;
19163;SDS011;9714;51.208;4.242;2023-02-15T13:07:40;45.40;;;27.40;;
19163;SDS011;9714;51.208;4.242;2023-02-15T13:10:18;48.17;;;27.93;;
19163;SDS011;9714;51.208;4.242;2023-02-15T13:12:49;51.83;;;29.43;;
19163;SDS011;9714;51.208;4.242;2023-02-15T13:15:28;48.47;;;27.03;;
19163;SDS011;9714;51.208;4.242;2023-02-15T13:17:59;47.37;;;26.80;;
19163;SDS011;9714;51.208;4.242;2023-02-15T13:20:29;45.63;;;27.03;;
19163;SDS011;9714;51.208;4.242;2023-02-15T13:22:59;48.20;;;26.97;;
19163;SDS011;9714;51.208;4.242;2023-02-15T13:25:32;49.93;;;28.17;;
19163;SDS011;9714;51.208;4.242;2023-02-15T13:28:10;52.20;;;29.00;;
19163;SDS011;9714;51.208;4.242;2023-02-15T13:30:42;56.10;;;27.27;;
19163;SDS011;9714;51.208;4.242;2023-02-15T13:33:13;46.77;;;27.87;;
19163;SDS011;9714;51.208;4.242;2023-02-15T13:35:44;47.10;;;27.80;;
19163;SDS011;9714;51.208;4.242;2023-02-15T13:38:22;47.43;;;26.90;;
19163;SDS011;9714;51.208;4.242;2023-02-15T13:41:04;53.87;;;26.83;;
19163;SDS011;9714;51.208;4.242;2023-02-15T13:43:39;51.07;;;28.27;;
19163;SDS011;9714;51.208;4.242;2023-02-15T13:46:17;47.87;;;28.00;;
19163;SDS011;9714;51.208;4.242;2023-02-15T13:48:59;48.43;;;27.23;;
19163;SDS011;9714;51.208;4.242;2023-02-15T13:51:45;45.40;;;25.73;;
19163;SDS011;9714;51.208;4.242;2023-02-15T14:00:24;50.40;;;26.67;;
19163;SDS011;9714;51.208;4.242;2023-02-15T14:09:07;48.08;;;26.67;;
19163;SDS011;9714;51.208;4.242;2023-02-15T14:11:56;44.42;;;25.75;;
19163;SDS011;9714;51.208;4.242;2023-02-15T14:15:01;46.10;;;26.87;;
19163;SDS011;9714;51.208;4.242;2023-02-15T14:17:51;43.95;;;27.17;;
19163;SDS011;9714;51.208;4.242;2023-02-15T14:20:51;47.63;;;27.90;;
19163;SDS011;9714;51.208;4.242;2023-02-15T14:23:38;49.78;;;27.60;;
19163;SDS011;9714;51.208;4.242;2023-02-15T14:26:25;42.90;;;26.92;;
19163;SDS011;9714;51.208;4.242;2023-02-15T14:29:06;42.65;;;25.73;;
19163;SDS011;9714;51.208;4.242;2023-02-15T14:31:52;52.72;;;27.88;;
19163;SDS011;9714;51.208;4.242;2023-02-15T14:34:41;44.72;;;27.42;;
19163;SDS011;9714;51.208;4.242;2023-02-15T14:37:39;53.75;;;33.50;;
19163;SDS011;9714;51.208;4.242;2023-02-15T14:40:26;51.90;;;28.20;;
19163;SDS011;9714;51.208;4.242;2023-02-15T14:43:49;44.90;;;26.05;;
19163;SDS011;9714;51.208;4.242;2023-02-15T15:01:42;49.40;;;29.63;;
19163;SDS011;9714;51.208;4.242;2023-02-15T15:04:24;49.47;;;28.13;;
19163;SDS011;9714;51.208;4.242;2023-02-15T15:07:01;50.33;;;31.27;;
19163;SDS011;9714;51.208;4.242;2023-02-15T15:09:34;51.57;;;28.47;;
19163;SDS011;9714;51.208;4.242;2023-02-15T15:15:05;49.23;;;27.50;;
19163;SDS011;9714;51.208;4.242;2023-02-15T15:26:27;46.47;;;26.97;;
19163;SDS011;9714;51.208;4.242;2023-02-15T15:29:02;48.90;;;26.03;;
19163;SDS011;9714;51.208;4.242;2023-02-15T15:31:35;49.90;;;27.00;;
19163;SDS011;9714;51.208;4.242;2023-02-15T16:22:31;52.13;;;29.33;;
19163;SDS011;9714;51.208;4.242;2023-02-15T16:27:55;47.00;;;28.07;;
19163;SDS011;9714;51.208;4.242;2023-02-15T16:30:27;54.10;;;30.63;;
19163;SDS011;9714;51.208;4.242;2023-02-15T16:33:06;54.93;;;30.27;;
19163;SDS011;9714;51.208;4.242;2023-02-15T16:35:35;57.07;;;30.10;;
19163;SDS011;9714;51.208;4.242;2023-02-15T16:38:20;54.47;;;29.07;;
19163;SDS011;9714;51.208;4.242;2023-02-15T17:28:46;54.50;;;30.10;;
19163;SDS011;9714;51.208;4.242;2023-02-15T17:31:23;52.27;;;30.13;;
19163;SDS011;9714;51.208;4.242;2023-02-15T17:37:14;54.53;;;28.37;;
19163;SDS011;9714;51.208;4.242;2023-02-15T17:39:59;61.30;;;31.47;;
19163;SDS011;9714;51.208;4.242;2023-02-15T17:42:37;56.77;;;32.53;;
19163;SDS011;9714;51.208;4.242;2023-02-15T17:45:08;56.90;;;30.87;;
19163;SDS011;9714;51.208;4.242;2023-02-15T17:53:18;59.73;;;31.37;;
19163;SDS011;9714;51.208;4.242;2023-02-15T17:55:45;53.73;;;30.63;;
19163;SDS011;9714;51.208;4.242;2023-02-15T17:58:12;62.23;;;32.73;;
19163;SDS011;9714;51.208;4.242;2023-02-15T18:00:45;57.53;;;31.50;;
19163;SDS011;9714;51.208;4.242;2023-02-15T18:03:38;58.47;;;31.20;;
19163;SDS011;9714;51.208;4.242;2023-02-15T18:06:25;67.73;;;31.50;;
19163;SDS011;9714;51.208;4.242;2023-02-15T18:09:11;55.47;;;32.77;;
19163;SDS011;9714;51.208;4.242;2023-02-15T18:11:58;67.13;;;32.00;;
19163;SDS011;9714;51.208;4.242;2023-02-15T18:14:27;63.67;;;32.67;;
19163;SDS011;9714;51.208;4.242;2023-02-15T18:16:57;54.27;;;32.17;;
19163;SDS011;9714;51.208;4.242;2023-02-15T18:19:24;55.10;;;31.33;;
19163;SDS011;9714;51.208;4.242;2023-02-15T18:21:54;56.73;;;31.00;;
19163;SDS011;9714;51.208;4.242;2023-02-15T18:24:22;63.47;;;34.27;;